Terminal Aerodrome Forecast
Issued by NWS

Home | Current Version | Previous Version | Text Only | Print | Product List | Glossary On
Versions: 1 2 3 4 5 6 7 8 9 10 11 12 13 14 15 16 17
000
FTUS46 KSEW 302341
TAFCLM
TAF
KCLM 302341Z 3100/3124 VRB03KT P6SM BKN070 BKN100
     FM310400 29004KT P6SM BKN040 OVC100
     FM311000 VRB04KT 3SM -RA BR BKN020 OVC040
     FM311800 33004KT P6SM -SHRA BKN035 OVC100=

USA.gov is the U.S. government's official web portal to all federal, state and local government web resources and services.